createdAt,value
2019-03-19T00:01:00.206Z,62.92
2019-03-19T00:02:07.276Z,65.46
2019-03-19T00:03:14.689Z,66.98
2019-03-19T00:04:21.690Z,66.71
2019-03-19T00:05:28.785Z,65.51
2019-03-19T00:06:35.799Z,63.38
2019-03-19T00:07:42.265Z,62.00
2019-03-19T00:08:50.268Z,60.59
2019-03-19T00:09:57.199Z,60.28
2019-03-19T00:11:04.149Z,59.96
2019-03-19T00:12:11.834Z,58.61
2019-03-19T00:13:18.803Z,57.23
2019-03-19T00:14:27.309Z,56.89
2019-03-19T00:15:34.549Z,57.63
2019-03-19T00:16:41.279Z,58.55
2019-03-19T00:17:48.364Z,59.57
2019-03-19T00:18:55.049Z,60.59
2019-03-19T00:20:01.629Z,61.43
2019-03-19T00:21:10.389Z,62.84
2019-03-19T00:22:17.030Z,65.38
2019-03-19T00:23:26.330Z,66.74
2019-03-19T00:24:33.260Z,66.49
2019-03-19T00:25:39.679Z,64.83
2019-03-19T00:26:46.317Z,62.89
2019-03-19T00:27:53.550Z,61.91
2019-03-19T00:29:01.080Z,60.85
2019-03-19T00:30:14.083Z,60.29
2019-03-19T00:31:39.480Z,59.83
2019-03-19T00:32:47.331Z,57.89
2019-03-19T00:33:54.230Z,57.24
2019-03-19T00:35:01.392Z,57.83
2019-03-19T00:36:10.241Z,58.83
2019-03-19T00:37:17.323Z,60.30
2019-03-19T00:38:24.331Z,61.23
2019-03-19T00:39:33.400Z,62.45
2019-03-19T00:40:40.158Z,64.86
2019-03-19T00:41:47.401Z,66.76
2019-03-19T00:42:56.068Z,66.48
2019-03-19T00:44:03.530Z,65.75
2019-03-19T00:45:12.834Z,64.67
2019-03-19T00:46:20.111Z,63.47
2019-03-19T00:47:27.360Z,62.49
2019-03-19T00:48:34.240Z,61.15
2019-03-19T00:49:40.550Z,60.52
2019-03-19T00:50:47.111Z,59.67
2019-03-19T00:51:53.747Z,58.05
2019-03-19T00:53:01.670Z,57.13
2019-03-19T00:54:08.941Z,57.46
2019-03-19T00:55:15.384Z,58.35
2019-03-19T00:56:22.101Z,59.67
2019-03-19T00:57:28.341Z,61.28
2019-03-19T00:58:34.491Z,62.21
2019-03-19T00:59:40.621Z,64.76
2019-03-19T01:00:47.911Z,66.72
2019-03-19T01:01:55.142Z,66.91
2019-03-19T01:03:01.971Z,65.97
2019-03-19T01:04:10.058Z,65.11
2019-03-19T01:05:17.090Z,63.68
2019-03-19T01:06:24.781Z,62.29
2019-03-19T01:07:31.553Z,61.30
2019-03-19T01:08:39.085Z,60.31
2019-03-19T01:09:45.471Z,59.40
2019-03-19T01:10:52.394Z,57.39
2019-03-19T01:11:59.553Z,56.49
2019-03-19T01:13:06.971Z,56.80
2019-03-19T01:14:13.633Z,57.75
2019-03-19T01:15:20.862Z,58.70
2019-03-19T01:16:27.911Z,59.97
2019-03-19T01:17:35.213Z,60.84
2019-03-19T01:18:43.471Z,62.23
2019-03-19T01:19:49.610Z,64.70
2019-03-19T01:20:56.702Z,66.84
2019-03-19T01:22:05.011Z,66.82
2019-03-19T01:23:11.991Z,65.94
2019-03-19T01:24:19.292Z,64.58
2019-03-19T01:25:26.712Z,63.50
2019-03-19T01:26:34.155Z,61.90
2019-03-19T01:27:41.632Z,60.97
2019-03-19T01:28:49.629Z,59.95
2019-03-19T01:29:56.482Z,59.43
2019-03-19T01:31:03.223Z,57.91
2019-03-19T01:32:10.394Z,57.20
2019-03-19T01:33:17.462Z,57.68
2019-03-19T01:34:25.798Z,58.56
2019-03-19T01:35:33.751Z,59.89
2019-03-19T01:36:40.463Z,60.70
2019-03-19T01:37:47.391Z,61.84
2019-03-19T01:38:55.472Z,63.67
2019-03-19T01:40:02.792Z,66.29
2019-03-19T01:41:08.912Z,66.64
2019-03-19T01:42:15.812Z,65.42
2019-03-19T01:43:22.720Z,64.41
2019-03-19T01:44:30.152Z,63.49
2019-03-19T01:45:37.782Z,62.59
2019-03-19T01:46:46.363Z,62.19
2019-03-19T01:47:54.120Z,61.61
2019-03-19T01:49:01.132Z,60.66
2019-03-19T01:50:16.108Z,60.19
2019-03-19T01:51:23.643Z,59.98
2019-03-19T01:52:31.113Z,59.24
2019-03-19T01:53:37.537Z,57.86
2019-03-19T01:54:44.744Z,57.18
2019-03-19T01:55:51.232Z,57.52
2019-03-19T01:56:58.482Z,58.51
2019-03-19T01:58:05.472Z,59.35
2019-03-19T01:59:13.083Z,60.64
2019-03-19T02:00:23.573Z,62.08
2019-03-19T02:01:29.987Z,64.70
2019-03-19T02:02:36.793Z,66.36
2019-03-19T02:03:43.903Z,66.77
2019-03-19T02:04:50.355Z,66.17
2019-03-19T02:05:58.785Z,65.09
2019-03-19T02:07:05.683Z,64.55
2019-03-19T02:08:13.323Z,63.26
2019-03-19T02:09:19.682Z,61.90
2019-03-19T02:10:26.204Z,61.37
2019-03-19T02:11:34.354Z,60.73
2019-03-19T02:12:42.503Z,59.93
2019-03-19T02:13:49.264Z,59.15
2019-03-19T02:14:56.402Z,57.71
2019-03-19T02:16:03.454Z,57.30
2019-03-19T02:17:12.704Z,57.75
2019-03-19T02:18:20.584Z,58.85
2019-03-19T02:19:29.325Z,60.07
2019-03-19T02:20:35.894Z,61.50
2019-03-19T02:21:42.443Z,62.67
2019-03-19T02:22:49.326Z,65.40
2019-03-19T02:23:56.746Z,67.13
2019-03-19T02:25:24.074Z,66.52
2019-03-19T02:26:31.625Z,65.66
2019-03-19T02:27:38.875Z,64.03
2019-03-19T02:28:45.161Z,63.00
2019-03-19T02:29:52.654Z,62.52
2019-03-19T02:31:00.156Z,61.46
2019-03-19T02:32:07.363Z,60.34
2019-03-19T02:33:14.090Z,59.94
2019-03-19T02:34:21.686Z,59.15
2019-03-19T02:35:28.444Z,58.09
2019-03-19T02:36:35.785Z,57.70
2019-03-19T02:37:43.227Z,58.38
2019-03-19T02:38:49.548Z,59.40
2019-03-19T02:39:56.385Z,61.31
2019-03-19T02:41:02.737Z,62.42
2019-03-19T02:42:10.160Z,64.90
2019-03-19T02:43:17.171Z,66.54
2019-03-19T02:44:23.695Z,66.15
2019-03-19T02:45:30.913Z,65.26
2019-03-19T02:46:38.914Z,64.48
2019-03-19T02:47:45.500Z,63.34
2019-03-19T02:48:52.957Z,62.54
2019-03-19T02:50:00.046Z,61.34
2019-03-19T02:51:09.112Z,61.02
2019-03-19T02:52:15.921Z,59.79
2019-03-19T02:53:22.896Z,59.21
2019-03-19T02:54:29.864Z,58.05
2019-03-19T02:55:38.104Z,57.63
2019-03-19T02:56:45.035Z,58.27
2019-03-19T02:57:54.116Z,59.17
2019-03-19T02:59:01.019Z,60.52
2019-03-19T03:00:11.787Z,62.33
2019-03-19T03:01:18.617Z,64.50
2019-03-19T03:02:25.947Z,66.31
2019-03-19T03:03:33.417Z,66.22
2019-03-19T03:04:39.956Z,65.77
2019-03-19T03:05:46.287Z,63.94
2019-03-19T03:06:53.339Z,63.26
2019-03-19T03:08:00.276Z,62.16
2019-03-19T03:09:09.326Z,61.05
2019-03-19T03:10:16.045Z,60.18
2019-03-19T03:11:23.387Z,59.37
2019-03-19T03:12:30.596Z,57.93
2019-03-19T03:13:37.347Z,57.46
2019-03-19T03:14:46.301Z,57.95
2019-03-19T03:15:54.247Z,59.47
2019-03-19T03:17:02.476Z,60.69
2019-03-19T03:18:09.425Z,61.94
2019-03-19T03:19:15.997Z,64.18
2019-03-19T03:20:24.092Z,66.24
2019-03-19T03:21:34.496Z,66.23
2019-03-19T03:22:41.757Z,65.44
2019-03-19T03:23:48.637Z,64.05
2019-03-19T03:24:55.256Z,62.44
2019-03-19T03:26:01.458Z,61.77
2019-03-19T03:27:08.498Z,61.11
2019-03-19T03:28:15.388Z,60.13
2019-03-19T03:29:22.612Z,59.75
2019-03-19T03:30:28.939Z,59.01
2019-03-19T03:31:37.207Z,57.48
2019-03-19T03:32:43.525Z,57.35
2019-03-19T03:33:51.467Z,58.30
2019-03-19T03:34:58.990Z,59.26
2019-03-19T03:36:06.174Z,61.21
2019-03-19T03:37:13.017Z,62.00
2019-03-19T03:38:20.347Z,64.25
2019-03-19T03:39:27.486Z,66.55
2019-03-19T03:40:36.265Z,66.30
2019-03-19T03:41:42.917Z,65.78
2019-03-19T03:42:50.011Z,64.52
2019-03-19T03:43:57.330Z,62.99
2019-03-19T03:45:08.126Z,62.00
2019-03-19T03:46:14.448Z,61.16
2019-03-19T03:47:22.059Z,60.12
2019-03-19T03:48:29.648Z,59.64
2019-03-19T03:49:36.699Z,58.40
2019-03-19T03:50:43.402Z,57.83
2019-03-19T03:51:50.593Z,58.16
2019-03-19T03:52:57.697Z,59.25
2019-03-19T03:54:04.280Z,60.49
2019-03-19T03:55:12.692Z,61.96
2019-03-19T03:56:20.249Z,62.60
2019-03-19T03:57:26.866Z,65.45
2019-03-19T03:58:33.629Z,66.85
2019-03-19T03:59:40.853Z,66.77
2019-03-19T04:00:46.969Z,65.73
2019-03-19T04:01:54.269Z,64.66
2019-03-19T04:03:02.415Z,63.80
2019-03-19T04:04:09.514Z,62.75
2019-03-19T04:05:17.175Z,61.99
2019-03-19T04:06:26.449Z,60.80
2019-03-19T04:07:34.228Z,60.12
2019-03-19T04:08:42.477Z,59.36
2019-03-19T04:09:49.909Z,58.47
2019-03-19T04:10:58.528Z,57.84
2019-03-19T04:12:05.832Z,58.25
2019-03-19T04:13:12.874Z,59.79
2019-03-19T04:14:19.600Z,60.75
2019-03-19T04:15:26.448Z,61.70
2019-03-19T04:16:34.506Z,63.63
2019-03-19T04:17:41.457Z,65.63
2019-03-19T04:18:47.848Z,66.25
2019-03-19T04:19:54.576Z,65.63
2019-03-19T04:21:01.663Z,64.71
2019-03-19T04:22:08.922Z,63.56
2019-03-19T04:23:15.472Z,62.42
2019-03-19T04:24:22.220Z,61.67
2019-03-19T04:25:29.201Z,60.42
2019-03-19T04:26:36.217Z,59.33
2019-03-19T04:27:42.849Z,58.36
2019-03-19T04:28:52.657Z,57.57
2019-03-19T04:29:59.579Z,57.89
2019-03-19T04:31:06.188Z,58.96
2019-03-19T04:32:12.912Z,59.98
2019-03-19T04:33:20.247Z,61.04
2019-03-19T04:34:26.950Z,62.25
2019-03-19T04:35:34.251Z,64.32
2019-03-19T04:36:41.469Z,66.77
2019-03-19T04:37:48.719Z,66.97
2019-03-19T04:38:55.739Z,66.00
2019-03-19T04:40:02.557Z,64.67
2019-03-19T04:41:10.439Z,63.49
2019-03-19T04:42:18.667Z,62.63
2019-03-19T04:43:25.386Z,61.82
2019-03-19T04:44:32.613Z,61.34
2019-03-19T04:45:39.439Z,60.73
2019-03-19T04:46:47.449Z,60.31
2019-03-19T04:47:54.609Z,60.14
2019-03-19T04:49:01.530Z,59.84
2019-03-19T04:50:16.652Z,59.55
2019-03-19T04:51:23.507Z,58.41
2019-03-19T04:52:30.624Z,57.99
2019-03-19T04:53:37.379Z,58.50
2019-03-19T04:54:44.019Z,59.64
2019-03-19T04:55:51.798Z,60.86
2019-03-19T04:56:58.779Z,61.81
2019-03-19T04:58:05.380Z,64.37
2019-03-19T04:59:12.449Z,66.69
2019-03-19T05:00:23.529Z,66.71
2019-03-19T05:01:30.929Z,66.06
2019-03-19T05:02:38.280Z,64.12
2019-03-19T05:03:45.119Z,62.70
2019-03-19T05:04:51.870Z,62.19
2019-03-19T05:05:59.731Z,60.68
2019-03-19T05:07:07.214Z,60.17
2019-03-19T05:08:13.994Z,59.51
2019-03-19T05:09:20.570Z,58.00
2019-03-19T05:10:27.207Z,56.99
2019-03-19T05:11:36.210Z,57.37
2019-03-19T05:12:44.770Z,58.31
2019-03-19T05:13:51.530Z,59.24
2019-03-19T05:14:58.590Z,60.78
2019-03-19T05:16:05.490Z,61.70
2019-03-19T05:17:12.700Z,64.16
2019-03-19T05:18:39.890Z,66.40
2019-03-19T05:19:46.719Z,66.10
2019-03-19T05:20:55.000Z,64.86
2019-03-19T05:22:02.200Z,63.66
2019-03-19T05:23:08.580Z,62.52
2019-03-19T05:24:15.602Z,61.88
2019-03-19T05:25:22.750Z,60.57
2019-03-19T05:26:29.621Z,59.59
2019-03-19T05:27:37.949Z,58.29
2019-03-19T05:28:45.895Z,57.09
2019-03-19T05:29:52.810Z,57.68
2019-03-19T05:30:59.280Z,58.72
2019-03-19T05:32:06.920Z,59.12
2019-03-19T05:33:13.700Z,60.56
2019-03-19T05:34:20.540Z,61.48
2019-03-19T05:35:27.741Z,62.20
2019-03-19T05:36:35.062Z,65.01
2019-03-19T05:37:41.665Z,67.04
2019-03-19T05:38:49.251Z,66.63
2019-03-19T05:39:57.282Z,65.01
2019-03-19T05:41:05.570Z,63.43
2019-03-19T05:42:12.589Z,61.98
2019-03-19T05:43:19.891Z,60.76
2019-03-19T05:44:28.511Z,60.12
2019-03-19T05:45:35.641Z,58.93
2019-03-19T05:46:42.422Z,57.26
2019-03-19T05:47:50.941Z,56.50
2019-03-19T05:48:57.498Z,56.91
2019-03-19T05:50:03.812Z,57.88
2019-03-19T05:51:10.964Z,59.39
2019-03-19T05:52:17.691Z,59.93
2019-03-19T05:53:24.692Z,61.00
2019-03-19T05:54:32.341Z,61.93
2019-03-19T05:55:39.535Z,64.95
2019-03-19T05:56:46.181Z,66.88
2019-03-19T05:57:52.953Z,66.30
2019-03-19T05:59:00.182Z,64.78
2019-03-19T06:00:20.554Z,63.32
2019-03-19T06:01:29.480Z,60.95
2019-03-19T06:02:36.862Z,60.07
2019-03-19T06:03:47.421Z,59.17
2019-03-19T06:04:54.692Z,57.55
2019-03-19T06:06:02.582Z,56.94
2019-03-19T06:07:11.392Z,57.49
2019-03-19T06:08:17.772Z,58.10
2019-03-19T06:09:24.914Z,59.33
2019-03-19T06:10:31.502Z,60.61
2019-03-19T06:11:39.012Z,61.36
2019-03-19T06:12:49.421Z,62.53
2019-03-19T06:13:57.912Z,64.97
2019-03-19T06:15:07.249Z,66.29
2019-03-19T06:16:13.684Z,65.59
2019-03-19T06:17:20.832Z,64.34
2019-03-19T06:18:35.043Z,62.58
2019-03-19T06:19:38.032Z,60.75
2019-03-19T06:21:05.293Z,59.06
2019-03-19T06:22:12.493Z,57.51
2019-03-19T06:23:19.170Z,56.59
2019-03-19T06:24:27.704Z,56.86
2019-03-19T06:25:36.263Z,57.68
2019-03-19T06:26:43.543Z,58.61
2019-03-19T06:27:59.861Z,59.47
2019-03-19T06:28:59.823Z,60.15
2019-03-19T06:30:10.574Z,61.29
2019-03-19T06:31:18.545Z,62.31
2019-03-19T06:32:25.893Z,64.31
2019-03-19T06:33:35.052Z,66.08
2019-03-19T06:34:42.624Z,65.28
2019-03-19T06:35:51.303Z,63.65
2019-03-19T06:36:58.226Z,61.37
2019-03-19T06:38:05.113Z,59.09
2019-03-19T06:39:12.253Z,55.30
2019-03-19T06:40:22.753Z,53.82
2019-03-19T06:41:28.942Z,52.79
2019-03-19T06:42:35.990Z,52.26
2019-03-19T06:43:45.402Z,52.44
2019-03-19T06:44:52.733Z,52.34
2019-03-19T06:45:59.722Z,52.08
2019-03-19T06:47:07.233Z,51.97
2019-03-19T06:48:14.497Z,52.52
2019-03-19T06:49:21.837Z,51.69
2019-03-19T06:50:29.218Z,51.63
2019-03-19T06:51:36.367Z,51.69
2019-03-19T06:52:44.028Z,51.34
2019-03-19T06:53:50.975Z,52.27
2019-03-19T06:54:58.053Z,50.48
2019-03-19T06:56:07.808Z,50.20
2019-03-19T06:57:15.127Z,50.59
2019-03-19T06:58:23.305Z,51.89
2019-03-19T06:59:30.697Z,51.28
2019-03-19T07:00:37.777Z,52.15
2019-03-19T07:01:45.458Z,51.38
2019-03-19T07:02:52.138Z,50.80
2019-03-19T07:03:59.830Z,49.47
2019-03-19T07:05:10.110Z,49.66
2019-03-19T07:06:16.830Z,50.84
2019-03-19T07:07:23.410Z,52.08
2019-03-19T07:08:30.644Z,53.35
2019-03-19T07:09:37.569Z,54.41
2019-03-19T07:10:44.730Z,55.45
2019-03-19T07:11:52.213Z,56.37
2019-03-19T07:12:59.240Z,57.85
2019-03-19T07:14:06.719Z,57.88
2019-03-19T07:15:22.979Z,58.37
2019-03-19T07:16:29.769Z,59.17
2019-03-19T07:17:36.810Z,60.27
2019-03-19T07:18:44.430Z,61.03
2019-03-19T07:19:51.778Z,61.96
2019-03-19T07:20:59.361Z,61.98
2019-03-19T07:22:06.940Z,62.36
2019-03-19T07:23:14.011Z,63.77
2019-03-19T07:24:21.939Z,64.42
2019-03-19T07:25:29.434Z,63.20
2019-03-19T07:26:36.370Z,61.48
2019-03-19T07:27:45.699Z,59.12
2019-03-19T07:28:53.099Z,57.24
2019-03-19T07:29:59.856Z,55.65
2019-03-19T07:31:07.648Z,55.37
2019-03-19T07:32:15.658Z,55.62
2019-03-19T07:33:23.087Z,55.88
2019-03-19T07:34:29.855Z,56.64
2019-03-19T07:35:57.564Z,57.13
2019-03-19T07:37:04.899Z,57.92
2019-03-19T07:38:12.508Z,58.32
2019-03-19T07:40:58.176Z,59.83
2019-03-19T07:42:04.584Z,60.90
2019-03-19T07:43:11.835Z,61.76
2019-03-19T07:44:18.974Z,62.14
2019-03-19T07:45:26.694Z,62.37
2019-03-19T07:46:39.425Z,63.88
2019-03-19T07:47:48.034Z,63.36
2019-03-19T07:48:54.796Z,62.46
2019-03-19T07:50:01.952Z,60.15
2019-03-19T07:51:10.147Z,57.89
2019-03-19T07:52:18.578Z,55.42
2019-03-19T07:53:25.738Z,55.18
2019-03-19T07:54:32.854Z,56.14
2019-03-19T07:55:39.725Z,57.05
2019-03-19T07:56:47.015Z,57.71
2019-03-19T07:57:54.118Z,58.64
2019-03-19T07:59:02.832Z,59.36
2019-03-19T08:00:15.816Z,60.43
2019-03-19T08:01:24.566Z,60.97
2019-03-19T08:02:30.342Z,62.15
2019-03-19T08:03:37.462Z,61.26
2019-03-19T08:04:44.435Z,61.17
2019-03-19T08:05:51.430Z,61.60
2019-03-19T08:06:57.743Z,62.06
2019-03-19T08:08:04.676Z,62.92
2019-03-19T08:09:12.972Z,63.15
2019-03-19T08:10:20.086Z,62.60
2019-03-19T08:11:26.675Z,59.98
2019-03-19T08:12:33.634Z,58.03
2019-03-19T08:13:40.957Z,56.37
2019-03-19T08:14:48.132Z,56.10
2019-03-19T08:16:15.052Z,56.61
2019-03-19T08:17:27.614Z,57.50
2019-03-19T08:18:36.010Z,57.95
2019-03-19T08:19:42.615Z,59.10
2019-03-19T08:20:49.112Z,59.68
2019-03-19T08:21:57.136Z,60.41
2019-03-19T08:23:05.255Z,60.27
2019-03-19T08:24:11.765Z,60.01
2019-03-19T08:25:18.535Z,60.42
2019-03-19T08:26:25.022Z,61.09
2019-03-19T08:27:32.464Z,61.62
2019-03-19T08:28:38.685Z,61.70
2019-03-19T08:29:45.945Z,61.91
2019-03-19T08:30:54.042Z,62.07
2019-03-19T08:32:01.639Z,62.19
2019-03-19T08:33:09.032Z,62.38
2019-03-19T08:34:15.243Z,64.25
2019-03-19T08:35:23.356Z,65.71
2019-03-19T08:36:30.754Z,63.15
2019-03-19T08:37:36.835Z,59.45
2019-03-19T08:38:43.566Z,57.35
2019-03-19T08:39:50.814Z,54.94
2019-03-19T08:40:56.837Z,55.05
2019-03-19T08:42:02.939Z,55.50
2019-03-19T08:43:09.637Z,56.07
2019-03-19T08:44:16.064Z,56.55
2019-03-19T08:45:24.875Z,56.52
2019-03-19T08:46:30.978Z,56.79
2019-03-19T08:47:38.473Z,56.58
2019-03-19T08:48:45.417Z,57.08
2019-03-19T08:49:52.590Z,57.44
2019-03-19T08:50:58.863Z,57.96
2019-03-19T08:52:07.251Z,58.88
2019-03-19T08:53:13.183Z,59.14
2019-03-19T08:54:19.515Z,59.49
2019-03-19T08:55:25.934Z,60.26
2019-03-19T08:56:32.976Z,60.22
2019-03-19T08:57:40.312Z,60.39
2019-03-19T08:58:47.228Z,60.51
2019-03-19T08:59:53.245Z,60.42
2019-03-19T09:00:59.557Z,60.84
2019-03-19T09:02:06.868Z,60.56
2019-03-19T09:03:13.198Z,60.89
2019-03-19T09:04:19.997Z,61.05
2019-03-19T09:05:27.327Z,60.83
2019-03-19T09:06:33.527Z,61.12
2019-03-19T09:07:39.601Z,61.29
2019-03-19T09:08:46.757Z,60.94
2019-03-19T09:09:53.274Z,60.87
2019-03-19T09:11:01.267Z,61.63
2019-03-19T09:12:07.450Z,60.69
2019-03-19T09:13:14.328Z,59.87
2019-03-19T09:14:20.749Z,59.47
2019-03-19T09:15:29.620Z,59.64
2019-03-19T09:16:37.821Z,59.31
2019-03-19T09:17:46.280Z,59.74
2019-03-19T09:18:52.370Z,59.37
2019-03-19T09:19:59.888Z,59.61
2019-03-19T09:21:06.467Z,59.44
2019-03-19T09:22:12.608Z,58.96
2019-03-19T09:23:18.997Z,60.24
2019-03-19T09:24:24.937Z,60.13
2019-03-19T09:25:32.788Z,60.04
2019-03-19T09:26:40.233Z,59.76
2019-03-19T09:27:47.008Z,59.84
2019-03-19T09:28:54.037Z,59.82
2019-03-19T09:30:00.298Z,59.18
2019-03-19T09:31:06.733Z,59.19
2019-03-19T09:32:13.636Z,58.77
2019-03-19T09:33:20.929Z,58.61
2019-03-19T09:34:26.977Z,58.76
2019-03-19T09:36:57.708Z,59.09
2019-03-19T09:38:05.263Z,59.80
2019-03-19T09:39:13.538Z,59.31
2019-03-19T09:40:21.872Z,58.97
2019-03-19T09:41:29.474Z,59.54
2019-03-19T09:42:35.716Z,59.13
2019-03-19T09:43:42.159Z,58.48
2019-03-19T09:44:58.218Z,58.73
2019-03-19T09:45:56.001Z,58.72
2019-03-19T09:47:02.236Z,58.31
2019-03-19T09:48:08.689Z,58.61
2019-03-19T09:49:14.918Z,58.62
2019-03-19T09:50:25.628Z,58.88
2019-03-19T09:51:32.389Z,58.67
2019-03-19T09:52:38.539Z,58.84
2019-03-19T09:53:45.052Z,59.19
2019-03-19T09:54:51.880Z,58.75
2019-03-19T09:55:58.109Z,59.22
2019-03-19T09:57:06.028Z,59.16
2019-03-19T09:58:12.949Z,57.46
2019-03-19T09:59:26.787Z,57.54
2019-03-19T10:00:27.089Z,58.45
2019-03-19T10:01:33.818Z,58.90
2019-03-19T10:02:39.998Z,59.24
2019-03-19T10:03:46.299Z,58.60
2019-03-19T10:04:53.198Z,58.15
2019-03-19T10:06:00.256Z,58.38
2019-03-19T10:07:08.137Z,58.41
2019-03-19T10:08:14.299Z,58.17
2019-03-19T10:09:20.710Z,57.87
2019-03-19T10:10:28.763Z,59.01
2019-03-19T10:11:36.669Z,56.48
2019-03-19T10:12:42.747Z,56.47
2019-03-19T10:13:48.856Z,56.61
2019-03-19T10:14:55.498Z,56.85
2019-03-19T10:16:01.747Z,56.67
2019-03-19T10:17:07.900Z,57.00
2019-03-19T10:18:13.999Z,56.82
2019-03-19T10:19:20.140Z,57.39
2019-03-19T10:20:26.689Z,57.87
2019-03-19T10:21:32.769Z,58.16
2019-03-19T10:22:39.127Z,57.89
2019-03-19T10:23:46.792Z,58.39
2019-03-19T10:24:53.600Z,59.58
2019-03-19T10:26:01.277Z,59.08
2019-03-19T10:27:07.566Z,58.44
2019-03-19T10:28:16.978Z,57.85
2019-03-19T10:29:23.390Z,55.76
2019-03-19T10:30:30.601Z,54.39
2019-03-19T10:31:37.130Z,52.72
2019-03-19T10:32:43.627Z,50.80
2019-03-19T10:33:49.689Z,51.86
2019-03-19T10:34:55.860Z,52.61
2019-03-19T10:36:03.288Z,53.49
2019-03-19T10:37:09.448Z,54.04
2019-03-19T10:38:15.834Z,54.92
2019-03-19T10:39:21.962Z,56.34
2019-03-19T10:40:28.210Z,55.94
2019-03-19T10:41:34.293Z,53.22
2019-03-19T10:42:40.481Z,51.73
2019-03-19T10:43:47.296Z,51.03
2019-03-19T10:44:53.727Z,51.93
2019-03-19T10:45:59.950Z,52.03
2019-03-19T10:47:05.903Z,52.07
2019-03-19T10:48:12.801Z,52.19
2019-03-19T10:49:19.360Z,52.03
2019-03-19T10:50:26.752Z,51.62
2019-03-19T10:51:35.069Z,52.29
2019-03-19T10:52:40.570Z,52.34
2019-03-19T10:53:46.721Z,53.78
2019-03-19T10:54:54.421Z,54.18
2019-03-19T10:56:01.538Z,54.26
2019-03-19T10:57:07.982Z,53.67
2019-03-19T10:58:14.391Z,54.28
2019-03-19T10:59:20.772Z,51.67
2019-03-19T11:00:27.971Z,51.90
2019-03-19T11:01:35.096Z,50.86
2019-03-19T11:02:49.338Z,47.45
2019-03-19T11:03:55.255Z,48.19
2019-03-19T11:05:01.569Z,48.61
2019-03-19T11:06:08.431Z,48.91
2019-03-19T11:07:15.414Z,49.64
2019-03-19T11:08:22.482Z,50.21
2019-03-19T11:09:28.773Z,51.09
2019-03-19T11:10:35.342Z,51.12
2019-03-19T11:11:41.443Z,50.78
2019-03-19T11:12:47.412Z,50.61
2019-03-19T11:13:54.159Z,48.94
2019-03-19T11:15:00.042Z,49.54
2019-03-19T11:16:27.228Z,50.28
2019-03-19T11:17:35.363Z,48.70
2019-03-19T11:18:41.161Z,48.80
2019-03-19T11:19:47.592Z,49.56
2019-03-19T11:20:53.744Z,50.37
2019-03-19T11:22:00.012Z,49.68
2019-03-19T11:23:06.352Z,48.96
2019-03-19T11:24:12.457Z,47.92
2019-03-19T11:25:23.466Z,46.92
2019-03-19T11:26:31.365Z,46.74
2019-03-19T11:27:37.524Z,46.62
2019-03-19T11:28:44.352Z,46.77
2019-03-19T11:29:59.471Z,46.81
2019-03-19T11:30:59.482Z,46.61
2019-03-19T11:32:06.010Z,46.69
2019-03-19T11:33:12.443Z,46.85
2019-03-19T11:34:18.588Z,48.35
2019-03-19T11:35:25.830Z,48.75
2019-03-19T11:36:31.935Z,47.31
2019-03-19T11:37:38.113Z,47.79
2019-03-19T11:38:44.962Z,47.22
2019-03-19T11:39:53.139Z,47.82
2019-03-19T11:41:22.302Z,48.05
2019-03-19T11:42:28.779Z,47.64
2019-03-19T11:43:35.513Z,47.28
2019-03-19T11:44:42.959Z,48.56
2019-03-19T11:45:48.965Z,47.68
2019-03-19T11:46:55.119Z,48.00
2019-03-19T11:48:01.110Z,48.12
2019-03-19T11:49:07.130Z,48.60
2019-03-19T11:50:17.111Z,48.91
2019-03-19T11:51:23.222Z,47.99
2019-03-19T11:52:29.202Z,47.85
2019-03-19T11:53:35.373Z,48.44
2019-03-19T11:54:41.703Z,48.50
2019-03-19T11:55:47.785Z,49.47
2019-03-19T11:56:56.483Z,49.96
2019-03-19T11:58:03.174Z,49.07
2019-03-19T11:59:20.123Z,49.43
2019-03-19T12:00:45.721Z,49.68
2019-03-19T12:01:52.403Z,49.37
2019-03-19T12:03:10.882Z,49.96
2019-03-19T12:04:08.304Z,50.04
2019-03-19T12:05:15.673Z,51.02
2019-03-19T12:06:22.550Z,50.76
2019-03-19T12:07:28.543Z,50.73
2019-03-19T12:08:35.253Z,50.69
2019-03-19T12:09:42.284Z,49.90
2019-03-19T12:10:48.455Z,49.44
2019-03-19T12:11:54.786Z,49.76
2019-03-19T12:13:00.822Z,48.08
2019-03-19T12:14:07.213Z,48.08
2019-03-19T12:15:15.324Z,48.48
2019-03-19T12:16:23.013Z,48.62
2019-03-19T12:17:32.024Z,49.30
2019-03-19T12:18:38.584Z,49.12
2019-03-19T12:19:46.284Z,49.98
2019-03-19T12:20:53.780Z,49.88
2019-03-19T12:22:02.515Z,50.00
2019-03-19T12:23:10.546Z,50.21
2019-03-19T12:24:17.524Z,50.40
2019-03-19T12:25:25.223Z,50.97
2019-03-19T12:26:31.321Z,49.94
2019-03-19T12:27:37.875Z,50.25
2019-03-19T12:28:44.044Z,50.04
2019-03-19T12:29:50.514Z,50.06
2019-03-19T12:30:57.088Z,50.19
2019-03-19T12:32:03.224Z,49.59
2019-03-19T12:33:10.053Z,49.55
2019-03-19T12:34:17.032Z,50.46
2019-03-19T12:35:24.065Z,50.86
2019-03-19T12:36:30.760Z,48.15
2019-03-19T12:37:37.252Z,47.29
2019-03-19T12:38:43.421Z,46.93
2019-03-19T12:39:49.461Z,47.14
2019-03-19T12:40:56.005Z,47.40
2019-03-19T12:42:03.655Z,48.05
2019-03-19T12:43:09.565Z,48.69
2019-03-19T12:44:17.317Z,48.26
2019-03-19T12:45:25.228Z,49.18
2019-03-19T12:46:31.347Z,48.46
2019-03-19T12:47:37.527Z,47.17
2019-03-19T12:48:43.654Z,47.85
2019-03-19T12:49:50.013Z,49.07
2019-03-19T12:50:56.242Z,49.53
2019-03-19T12:52:02.595Z,49.98
2019-03-19T12:53:11.318Z,50.57
2019-03-19T12:54:17.348Z,51.14
2019-03-19T12:55:24.795Z,51.72
2019-03-19T12:56:31.482Z,52.04
2019-03-19T12:57:39.485Z,52.09
2019-03-19T12:58:46.725Z,52.84
2019-03-19T12:59:53.350Z,52.67
2019-03-19T13:00:59.893Z,52.94
2019-03-19T13:02:08.006Z,53.99
2019-03-19T13:03:14.148Z,54.71
2019-03-19T13:04:22.486Z,54.28
2019-03-19T13:05:29.115Z,55.15
2019-03-19T13:06:36.843Z,55.75
2019-03-19T13:07:43.816Z,56.44
2019-03-19T13:08:50.290Z,57.87
2019-03-19T13:09:56.963Z,57.98
2019-03-19T13:11:04.352Z,58.98
2019-03-19T13:12:10.589Z,60.96
2019-03-19T13:13:16.535Z,61.25
2019-03-19T13:14:22.618Z,64.17
2019-03-19T13:15:28.909Z,64.05
2019-03-19T13:16:35.011Z,60.98
2019-03-19T13:17:41.226Z,57.84
2019-03-19T13:18:47.355Z,56.11
2019-03-19T13:19:54.708Z,56.94
2019-03-19T13:21:01.618Z,55.66
2019-03-19T13:22:07.584Z,56.26
2019-03-19T13:23:13.637Z,56.39
2019-03-19T13:24:19.870Z,55.51
2019-03-19T13:25:27.216Z,55.59
2019-03-19T13:26:34.605Z,54.91
2019-03-19T13:27:43.428Z,56.66
2019-03-19T13:28:50.160Z,58.10
2019-03-19T13:29:56.796Z,58.30
2019-03-19T13:31:02.896Z,58.36
2019-03-19T13:32:09.467Z,58.55
2019-03-19T13:33:16.445Z,57.39
2019-03-19T13:34:23.086Z,57.05
2019-03-19T13:35:31.491Z,58.89
2019-03-19T13:36:37.933Z,58.00
2019-03-19T13:37:45.349Z,57.62
2019-03-19T13:38:53.636Z,58.09
2019-03-19T13:39:59.964Z,57.82
2019-03-19T13:41:07.023Z,57.84
2019-03-19T13:42:14.127Z,58.33
2019-03-19T13:43:20.067Z,59.37
2019-03-19T13:44:25.947Z,58.94
2019-03-19T13:45:32.137Z,58.36
2019-03-19T13:46:38.366Z,58.34
2019-03-19T13:47:44.959Z,58.52
2019-03-19T13:48:51.177Z,59.24
2019-03-19T13:49:57.217Z,60.42
2019-03-19T13:51:03.258Z,61.36
2019-03-19T13:52:09.305Z,60.92
2019-03-19T13:53:15.457Z,60.59
2019-03-19T13:54:22.379Z,60.88
2019-03-19T13:55:29.297Z,60.74
2019-03-19T13:56:37.066Z,60.28
2019-03-19T13:57:45.457Z,60.96
2019-03-19T13:58:52.462Z,63.76
2019-03-19T13:59:59.964Z,66.86
2019-03-19T14:01:05.877Z,66.14
2019-03-19T14:02:12.937Z,63.26
2019-03-19T14:03:20.265Z,60.09
2019-03-19T14:04:47.185Z,56.58
2019-03-19T14:05:53.438Z,54.68
2019-03-19T14:07:01.297Z,53.86
2019-03-19T14:08:09.665Z,54.24
2019-03-19T14:09:17.059Z,53.46
2019-03-19T14:10:23.858Z,53.69
2019-03-19T14:11:30.438Z,53.35
2019-03-19T14:12:36.678Z,54.13
2019-03-19T14:13:43.105Z,53.77
2019-03-19T14:14:49.319Z,53.69
2019-03-19T14:15:56.081Z,53.74
2019-03-19T14:17:02.253Z,54.03
2019-03-19T14:18:10.324Z,54.18
2019-03-19T14:19:16.625Z,54.35
2019-03-19T14:20:22.866Z,54.64
2019-03-19T14:21:29.147Z,54.19
2019-03-19T14:22:35.425Z,55.37
2019-03-19T14:23:41.659Z,54.01
2019-03-19T14:24:48.279Z,54.10
2019-03-19T14:25:54.658Z,55.44
2019-03-19T14:27:01.799Z,55.53
2019-03-19T14:28:08.986Z,54.59
2019-03-19T14:29:15.078Z,52.87
2019-03-19T14:30:26.544Z,52.57
2019-03-19T14:31:34.618Z,52.38
2019-03-19T14:32:41.400Z,52.57